createdAt,value
2023-03-17T00:00:15.603Z,1587.00
2023-03-17T00:01:15.692Z,1604.00
2023-03-17T00:02:15.746Z,1583.00
2023-03-17T00:03:15.793Z,1593.00
2023-03-17T00:04:15.788Z,1595.00
2023-03-17T00:05:15.853Z,1593.00
2023-03-17T00:06:15.890Z,1583.00
2023-03-17T00:07:15.933Z,1588.00
2023-03-17T00:08:15.961Z,1585.00
2023-03-17T00:09:15.991Z,1576.00
2023-03-17T00:10:16.008Z,1576.00
2023-03-17T00:11:16.087Z,1579.00
2023-03-17T00:12:16.109Z,1575.00
2023-03-17T00:13:16.169Z,1576.00
2023-03-17T00:14:16.264Z,1568.00
2023-03-17T00:15:16.303Z,1561.00
2023-03-17T00:16:16.361Z,1560.00
2023-03-17T00:17:16.339Z,1561.00
2023-03-17T00:18:16.408Z,1551.00
2023-03-17T00:19:16.446Z,1560.00
2023-03-17T00:20:16.529Z,1567.00
2023-03-17T00:21:16.537Z,1565.00
2023-03-17T00:22:16.633Z,1566.00
2023-03-17T00:23:16.659Z,1553.00
2023-03-17T00:24:16.658Z,1545.00
2023-03-17T00:25:16.715Z,1549.00
2023-03-17T00:26:16.762Z,1563.00
2023-03-17T00:27:16.756Z,1550.00
2023-03-17T00:28:16.772Z,1538.00
2023-03-17T00:29:16.785Z,1541.00
2023-03-17T00:30:16.790Z,1527.00
2023-03-17T00:31:17.096Z,1550.00
2023-03-17T00:32:16.942Z,1549.00
2023-03-17T00:33:16.952Z,1537.00
2023-03-17T00:34:17.004Z,1544.00
2023-03-17T00:35:17.030Z,1546.00
2023-03-17T00:36:17.052Z,1543.00
2023-03-17T00:37:17.079Z,1536.00
2023-03-17T00:38:17.107Z,1526.00
2023-03-17T00:39:17.084Z,1517.00
2023-03-17T00:40:17.129Z,1527.00
2023-03-17T00:41:17.135Z,1518.00
2023-03-17T00:42:17.193Z,1511.00
2023-03-17T00:43:17.254Z,1523.00
2023-03-17T00:44:17.276Z,1528.00
2023-03-17T00:45:17.362Z,1523.00
2023-03-17T00:46:17.401Z,1524.00
2023-03-17T00:47:17.422Z,1512.00
2023-03-17T00:48:17.389Z,1512.00
2023-03-17T00:49:18.464Z,1506.00
2023-03-17T00:50:17.456Z,1514.00
2023-03-17T00:51:17.425Z,1496.00
2023-03-17T01:06:18.480Z,1487.00
2023-03-17T01:11:18.556Z,1458.00
2023-03-17T01:24:18.471Z,1445.00
2023-03-17T01:25:18.497Z,1452.00
2023-03-17T01:26:18.452Z,1437.00
2023-03-17T01:27:18.460Z,1450.00
2023-03-17T01:28:18.588Z,1447.00
2023-03-17T01:29:18.561Z,1426.00
2023-03-17T01:30:18.565Z,1445.00
2023-03-17T01:31:18.664Z,1442.00
2023-03-17T01:32:18.613Z,1437.00
2023-03-17T01:33:18.630Z,1441.00
2023-03-17T01:34:18.703Z,1443.00
2023-03-17T01:35:18.767Z,1429.00
2023-03-17T01:36:18.829Z,1433.00
2023-03-17T01:37:18.889Z,1414.00
2023-03-17T01:38:19.001Z,1429.00
2023-03-17T01:39:18.972Z,1435.00
2023-03-17T01:40:19.000Z,1419.00
2023-03-17T01:41:19.030Z,1426.00
2023-03-17T01:42:19.088Z,1420.00
2023-03-17T01:43:19.134Z,1410.00
2023-03-17T01:44:19.192Z,1409.00
2023-03-17T01:45:19.254Z,1414.00
2023-03-17T01:46:19.288Z,1406.00
2023-03-17T01:47:19.306Z,1415.00
2023-03-17T01:48:19.348Z,1407.00
2023-03-17T01:49:19.473Z,1400.00
2023-03-17T01:50:19.503Z,1402.00
2023-03-17T01:51:19.563Z,1402.00
2023-03-17T01:52:19.592Z,1388.00
2023-03-17T01:53:19.662Z,1396.00
2023-03-17T01:54:19.726Z,1400.00
2023-03-17T01:55:19.782Z,1397.00
2023-03-17T01:56:19.849Z,1378.00
2023-03-17T01:57:19.889Z,1378.00
2023-03-17T01:58:19.948Z,1367.00
2023-03-17T01:59:20.016Z,1380.00
2023-03-17T02:00:20.070Z,1380.00
2023-03-17T02:01:20.105Z,1374.00
2023-03-17T02:02:20.168Z,1369.00
2023-03-17T02:03:20.253Z,1369.00
2023-03-17T02:04:20.401Z,1375.00
2023-03-17T02:05:20.362Z,1375.00
2023-03-17T02:06:20.412Z,1384.00
2023-03-17T02:07:20.496Z,1372.00
2023-03-17T02:08:20.546Z,1375.00
2023-03-17T02:09:20.586Z,1375.00
2023-03-17T02:10:20.649Z,1364.00
2023-03-17T02:11:20.716Z,1345.00
2023-03-17T02:12:20.757Z,1356.00
2023-03-17T02:13:20.836Z,1345.00
2023-03-17T02:14:20.869Z,1346.00
2023-03-17T02:15:20.937Z,1346.00
2023-03-17T02:16:20.973Z,1338.00
2023-03-17T02:17:20.996Z,1353.00
2023-03-17T02:18:21.059Z,1343.00
2023-03-17T02:19:21.087Z,1348.00
2023-03-17T02:20:21.114Z,1316.00
2023-03-17T02:21:21.134Z,1333.00
2023-03-17T02:22:21.146Z,1322.00
2023-03-17T02:23:21.195Z,1331.00
2023-03-17T02:24:21.250Z,1331.00
2023-03-17T02:25:21.268Z,1326.00
2023-03-17T02:26:21.294Z,1321.00
2023-03-17T02:27:21.335Z,1318.00
2023-03-17T02:28:21.366Z,1307.00
2023-03-17T02:29:21.388Z,1322.00
2023-03-17T02:30:21.434Z,1312.00
2023-03-17T02:31:21.493Z,1310.00
2023-03-17T02:32:21.526Z,1314.00
2023-03-17T02:33:21.555Z,1312.00
2023-03-17T02:34:21.547Z,1309.00
2023-03-17T02:35:21.566Z,1306.00
2023-03-17T02:36:21.638Z,1309.00
2023-03-17T02:37:21.620Z,1311.00
2023-03-17T02:38:21.668Z,1308.00
2023-03-17T02:39:21.688Z,1313.00
2023-03-17T02:40:21.707Z,1308.00
2023-03-17T02:41:21.728Z,1312.00
2023-03-17T02:42:21.772Z,1294.00
2023-03-17T02:43:21.747Z,1299.00
2023-03-17T02:44:21.801Z,1289.00
2023-03-17T02:45:21.796Z,1290.00
2023-03-17T02:46:21.926Z,1286.00
2023-03-17T02:47:21.885Z,1306.00
2023-03-17T02:48:21.899Z,1292.00
2023-03-17T02:49:21.907Z,1286.00
2023-03-17T02:50:21.912Z,1288.00
2023-03-17T02:51:21.976Z,1282.00
2023-03-17T02:52:21.906Z,1284.00
2023-03-17T02:53:21.971Z,1290.00
2023-03-17T02:54:21.995Z,1296.00
2023-03-17T02:55:22.003Z,1286.00
2023-03-17T02:56:21.993Z,1277.00
2023-03-17T02:57:22.004Z,1280.00
2023-03-17T02:58:22.012Z,1282.00
2023-03-17T02:59:22.010Z,1282.00
2023-03-17T03:00:22.051Z,1284.00
2023-03-17T03:01:22.030Z,1269.00
2023-03-17T03:02:22.066Z,1268.00
2023-03-17T03:03:22.032Z,1264.00
2023-03-17T03:04:22.044Z,1278.00
2023-03-17T03:05:22.073Z,1278.00
2023-03-17T03:06:22.063Z,1263.00
2023-03-17T03:07:22.085Z,1266.00
2023-03-17T03:08:22.093Z,1258.00
2023-03-17T03:09:22.079Z,1260.00
2023-03-17T03:10:22.083Z,1277.00
2023-03-17T03:11:22.094Z,1267.00
2023-03-17T03:12:22.123Z,1261.00
2023-03-17T03:13:22.106Z,1284.00
2023-03-17T03:14:22.112Z,1258.00
2023-03-17T03:15:22.130Z,1258.00
2023-03-17T03:16:22.168Z,1267.00
2023-03-17T03:17:22.157Z,1247.00
2023-03-17T03:18:22.138Z,1251.00
2023-03-17T03:19:22.168Z,1262.00
2023-03-17T03:20:22.191Z,1262.00
2023-03-17T03:21:22.182Z,1246.00
2023-03-17T03:22:22.171Z,1240.00
2023-03-17T03:23:22.170Z,1255.00
2023-03-17T03:24:22.166Z,1252.00
2023-03-17T03:25:22.188Z,1249.00
2023-03-17T03:26:22.187Z,1250.00
2023-03-17T03:27:22.168Z,1239.00
2023-03-17T03:28:22.171Z,1245.00
2023-03-17T03:29:22.187Z,1242.00
2023-03-17T03:30:22.193Z,1254.00
2023-03-17T03:31:22.193Z,1227.00
2023-03-17T03:32:22.188Z,1236.00
2023-03-17T03:33:22.184Z,1227.00
2023-03-17T03:34:22.188Z,1245.00
2023-03-17T03:35:22.181Z,1240.00
2023-03-17T03:36:22.184Z,1239.00
2023-03-17T03:37:22.228Z,1234.00
2023-03-17T03:38:22.191Z,1227.00
2023-03-17T03:39:22.205Z,1231.00
2023-03-17T03:40:22.168Z,1212.00
2023-03-17T03:41:22.193Z,1234.00
2023-03-17T03:42:22.208Z,1226.00
2023-03-17T03:43:23.872Z,1229.00
2023-03-17T03:44:22.205Z,1224.00
2023-03-17T03:45:23.096Z,1215.00
2023-03-17T03:46:22.223Z,1215.00
2023-03-17T03:47:22.203Z,1227.00
2023-03-17T03:48:22.215Z,1226.00
2023-03-17T03:49:22.173Z,1224.00
2023-03-17T03:50:22.208Z,1220.00
2023-03-17T03:51:22.244Z,1209.00
2023-03-17T03:52:22.189Z,1221.00
2023-03-17T03:53:22.202Z,1217.00
2023-03-17T03:54:22.190Z,1220.00
2023-03-17T03:55:22.212Z,1206.00
2023-03-17T03:56:22.243Z,1208.00
2023-03-17T03:57:22.221Z,1216.00
2023-03-17T03:58:22.199Z,1216.00
2023-03-17T03:59:22.280Z,1200.00
2023-03-17T04:00:22.311Z,1207.00
2023-03-17T04:01:22.281Z,1198.00
2023-03-17T04:02:22.342Z,1188.00
2023-03-17T04:03:22.261Z,1193.00
2023-03-17T04:04:22.319Z,1197.00
2023-03-17T04:05:22.306Z,1180.00
2023-03-17T04:06:22.355Z,1181.00
2023-03-17T04:07:22.327Z,1181.00
2023-03-17T04:08:22.337Z,1197.00
2023-03-17T04:09:22.342Z,1194.00
2023-03-17T04:10:22.394Z,1204.00
2023-03-17T04:11:22.340Z,1178.00
2023-03-17T04:12:22.374Z,1184.00
2023-03-17T04:13:22.377Z,1184.00
2023-03-17T04:14:22.383Z,1182.00
2023-03-17T04:15:22.348Z,1169.00
2023-03-17T04:16:22.467Z,1181.00
2023-03-17T04:17:22.349Z,1174.00
2023-03-17T04:18:22.344Z,1163.00
2023-03-17T04:19:22.413Z,1170.00
2023-03-17T04:20:22.421Z,1183.00
2023-03-17T04:21:22.342Z,1188.00
2023-03-17T04:22:22.386Z,1169.00
2023-03-17T04:23:22.350Z,1173.00
2023-03-17T04:24:22.379Z,1173.00
2023-03-17T04:25:22.342Z,1171.00
2023-03-17T04:26:22.356Z,1151.00
2023-03-17T04:27:22.330Z,1174.00
2023-03-17T04:28:22.331Z,1151.00
2023-03-17T04:29:22.328Z,1161.00
2023-03-17T04:30:22.353Z,1161.00
2023-03-17T04:31:22.379Z,1162.00
2023-03-17T04:32:22.359Z,1147.00
2023-03-17T04:33:22.365Z,1154.00
2023-03-17T04:34:22.355Z,1163.00
2023-03-17T04:35:22.375Z,1157.00
2023-03-17T04:36:22.350Z,1166.00
2023-03-17T04:37:22.383Z,1160.00
2023-03-17T04:38:22.342Z,1162.00
2023-03-17T04:39:22.395Z,1157.00
2023-03-17T04:40:22.348Z,1142.00
2023-03-17T04:41:22.388Z,1178.00
2023-03-17T04:42:22.364Z,1150.00
2023-03-17T04:43:22.377Z,1144.00
2023-03-17T04:44:22.391Z,1152.00
2023-03-17T04:45:22.337Z,1144.00
2023-03-17T04:46:22.380Z,1137.00
2023-03-17T04:47:22.356Z,1142.00
2023-03-17T04:48:22.407Z,1148.00
2023-03-17T04:49:22.418Z,1138.00
2023-03-17T04:50:22.426Z,1127.00
2023-03-17T04:51:22.425Z,1140.00
2023-03-17T04:52:22.428Z,1145.00
2023-03-17T04:53:22.440Z,1131.00
2023-03-17T04:54:22.461Z,1119.00
2023-03-17T04:55:22.508Z,1118.00
2023-03-17T04:56:22.501Z,1127.00
2023-03-17T04:57:22.521Z,1131.00
2023-03-17T04:58:30.546Z,1130.00
2023-03-17T04:59:23.540Z,1131.00
2023-03-17T05:00:22.507Z,1130.00
2023-03-17T05:01:22.528Z,1132.00
2023-03-17T05:02:22.539Z,1135.00
2023-03-17T05:03:27.193Z,1129.00
2023-03-17T05:04:31.165Z,1131.00
2023-03-17T05:05:23.456Z,1132.00
2023-03-17T05:06:22.471Z,1136.00
2023-03-17T05:07:22.457Z,1136.00
2023-03-17T05:08:22.480Z,1133.00
2023-03-17T05:09:22.457Z,1138.00
2023-03-17T05:10:22.437Z,1141.00
2023-03-17T05:11:22.435Z,1120.00
2023-03-17T05:12:22.480Z,1122.00
2023-03-17T05:13:22.417Z,1127.00
2023-03-17T05:14:22.398Z,1128.00
2023-03-17T05:15:22.415Z,1123.00
2023-03-17T05:16:22.421Z,1126.00
2023-03-17T05:17:22.397Z,1119.00
2023-03-17T05:18:22.408Z,1112.00
2023-03-17T05:19:22.382Z,1107.00
2023-03-17T05:20:22.379Z,1119.00
2023-03-17T05:21:22.414Z,1103.00
2023-03-17T05:22:22.362Z,1108.00
2023-03-17T05:23:22.379Z,1120.00
2023-03-17T05:24:22.359Z,1112.00
2023-03-17T05:25:22.342Z,1088.00
2023-03-17T05:26:22.336Z,1103.00
2023-03-17T05:27:22.330Z,1094.00
2023-03-17T05:28:22.343Z,1104.00
2023-03-17T05:29:22.316Z,1095.00
2023-03-17T05:30:22.327Z,1093.00
2023-03-17T05:31:22.408Z,1064.00
2023-03-17T05:32:22.311Z,1094.00
2023-03-17T05:33:22.274Z,1101.00
2023-03-17T05:34:22.298Z,1085.00
2023-03-17T05:35:22.299Z,1080.00
2023-03-17T05:36:22.263Z,1087.00
2023-03-17T05:37:22.267Z,1095.00
2023-03-17T05:38:22.276Z,1077.00
2023-03-17T05:39:22.288Z,1091.00
2023-03-17T05:40:23.849Z,1087.00
2023-03-17T05:41:22.271Z,1065.00
2023-03-17T05:42:22.263Z,1072.00
2023-03-17T05:43:22.216Z,1080.00
2023-03-17T05:44:22.246Z,1068.00
2023-03-17T05:45:22.220Z,1081.00
2023-03-17T05:46:22.223Z,1066.00
2023-03-17T05:47:22.186Z,1060.00
2023-03-17T05:48:22.214Z,1072.00
2023-03-17T05:49:22.216Z,1081.00
2023-03-17T05:50:22.169Z,1052.00
2023-03-17T05:51:22.212Z,1072.00
2023-03-17T05:52:22.174Z,1068.00
2023-03-17T05:53:22.172Z,1073.00
2023-03-17T05:54:22.180Z,1057.00
2023-03-17T05:55:22.141Z,1049.00
2023-03-17T05:56:22.140Z,1057.00
2023-03-17T05:57:22.160Z,1051.00
2023-03-17T05:58:22.162Z,1057.00
2023-03-17T05:59:22.147Z,1059.00
2023-03-17T06:00:29.580Z,1027.00
2023-03-17T06:01:22.104Z,1030.00
2023-03-17T06:02:22.162Z,1032.00
2023-03-17T06:03:22.128Z,1042.00
2023-03-17T06:04:22.088Z,1043.00
2023-03-17T06:05:22.092Z,1065.00
2023-03-17T06:06:22.085Z,1045.00
2023-03-17T06:07:22.092Z,1053.00
2023-03-17T06:08:22.070Z,1038.00
2023-03-17T06:09:22.095Z,1049.00
2023-03-17T06:10:22.075Z,1049.00
2023-03-17T06:11:22.054Z,1061.00
2023-03-17T06:12:22.021Z,1044.00
2023-03-17T06:13:22.034Z,1045.00
2023-03-17T06:14:22.041Z,1040.00
2023-03-17T06:15:22.019Z,1039.00
2023-03-17T06:16:22.065Z,1033.00
2023-03-17T06:17:22.002Z,1026.00
2023-03-17T06:18:21.996Z,1022.00
2023-03-17T06:19:22.016Z,1036.00
2023-03-17T06:20:21.985Z,1021.00
2023-03-17T06:21:22.041Z,1026.00
2023-03-17T06:22:22.031Z,1018.00
2023-03-17T06:23:21.999Z,1017.00
2023-03-17T06:24:21.953Z,1030.00
2023-03-17T06:25:21.968Z,1028.00
2023-03-17T06:26:21.993Z,1023.00
2023-03-17T06:27:21.992Z,1016.00
2023-03-17T06:28:22.679Z,1031.00
2023-03-17T06:29:22.065Z,1000.00
2023-03-17T06:30:22.081Z,1020.00
2023-03-17T06:31:22.209Z,1020.00
2023-03-17T06:32:22.155Z,1016.00
2023-03-17T06:33:22.194Z,1011.00
2023-03-17T06:34:22.193Z,1034.00
2023-03-17T06:35:22.275Z,1052.00
2023-03-17T06:36:22.327Z,1076.00
2023-03-17T06:37:22.739Z,1077.00
2023-03-17T06:38:22.378Z,1662.00
2023-03-17T06:39:22.431Z,2702.00
2023-03-17T06:40:22.487Z,1782.00
2023-03-17T06:41:22.553Z,1734.00
2023-03-17T06:42:22.687Z,1655.00
2023-03-17T06:43:22.555Z,1818.00
2023-03-17T06:44:22.622Z,1696.00
2023-03-17T06:45:30.019Z,1663.00
2023-03-17T06:46:22.645Z,1665.00
2023-03-17T06:47:25.803Z,1666.00
2023-03-17T06:48:22.622Z,1663.00
2023-03-17T06:49:22.623Z,1637.00
2023-03-17T06:50:22.581Z,1675.00
2023-03-17T06:51:22.665Z,1714.00
2023-03-17T06:52:22.558Z,1721.00
2023-03-17T06:53:22.588Z,1739.00
2023-03-17T06:54:22.583Z,1828.00
2023-03-17T06:55:22.585Z,1824.00
2023-03-17T06:56:29.869Z,1811.00
2023-03-17T06:57:23.529Z,1815.00
2023-03-17T06:58:22.541Z,1825.00
2023-03-17T06:59:23.051Z,1868.00
2023-03-17T07:00:22.547Z,1903.00
2023-03-17T07:01:22.540Z,1957.00
2023-03-17T07:02:22.776Z,2111.00
2023-03-17T07:03:22.511Z,2065.00
2023-03-17T07:04:22.618Z,2067.00
2023-03-17T07:05:22.473Z,2086.00
2023-03-17T07:06:22.562Z,2086.00
2023-03-17T07:07:22.608Z,2127.00
2023-03-17T07:08:22.651Z,2212.00
2023-03-17T07:09:22.616Z,2249.00
2023-03-17T07:10:22.704Z,2269.00
2023-03-17T07:11:22.727Z,2272.00
2023-03-17T07:12:22.728Z,2221.00
2023-03-17T07:13:22.805Z,2269.00
2023-03-17T07:14:22.811Z,2356.00
2023-03-17T07:15:22.788Z,2307.00
2023-03-17T07:16:22.839Z,2317.00
2023-03-17T07:17:22.845Z,2501.00
2023-03-17T07:18:22.870Z,2449.00
2023-03-17T07:19:22.865Z,2323.00
2023-03-17T07:20:22.940Z,2386.00
2023-03-17T07:21:22.889Z,2382.00
2023-03-17T07:22:22.933Z,2314.00
2023-03-17T07:23:23.176Z,2379.00
2023-03-17T07:24:22.988Z,2384.00
2023-03-17T07:25:22.917Z,2422.00
2023-03-17T07:26:22.918Z,2423.00
2023-03-17T07:27:23.257Z,2448.00
2023-03-17T07:28:22.952Z,2462.00
2023-03-17T07:29:22.984Z,2492.00
2023-03-17T07:30:22.940Z,2531.00
2023-03-17T07:31:23.054Z,2538.00
2023-03-17T07:32:22.951Z,2528.00
2023-03-17T07:33:23.041Z,2495.00
2023-03-17T07:34:23.118Z,2516.00
2023-03-17T07:35:23.198Z,2535.00
2023-03-17T07:36:23.211Z,2568.00
2023-03-17T07:37:23.274Z,2520.00
2023-03-17T07:38:23.284Z,2502.00
2023-03-17T07:39:23.310Z,2491.00
2023-03-17T07:40:23.341Z,2480.00
2023-03-17T07:41:23.326Z,2493.00
2023-03-17T07:42:23.453Z,2517.00
2023-03-17T07:43:23.409Z,2521.00
2023-03-17T07:44:23.428Z,2588.00
2023-03-17T07:45:23.464Z,2380.00
2023-03-17T07:46:23.545Z,2171.00
2023-03-17T07:47:23.489Z,2091.00
2023-03-17T07:48:23.495Z,1965.00
2023-03-17T07:49:40.049Z,1836.00
2023-03-17T07:50:24.536Z,1734.00
2023-03-17T07:51:23.518Z,1664.00
2023-03-17T07:52:23.572Z,1662.00
2023-03-17T07:53:23.523Z,1686.00
2023-03-17T07:54:23.500Z,1684.00
2023-03-17T07:55:23.500Z,1702.00
2023-03-17T07:56:23.551Z,1715.00
2023-03-17T07:57:23.657Z,1749.00
2023-03-17T07:58:23.505Z,1730.00
2023-03-17T07:59:23.448Z,1732.00
2023-03-17T08:00:23.463Z,1670.00
2023-03-17T08:01:23.463Z,1703.00
2023-03-17T08:02:23.529Z,1624.00
2023-03-17T08:03:23.470Z,1692.00
2023-03-17T08:04:23.441Z,1618.00
2023-03-17T08:05:23.442Z,1525.00
2023-03-17T08:06:23.464Z,1541.00
2023-03-17T08:07:23.422Z,1516.00
2023-03-17T08:08:23.503Z,1515.00
2023-03-17T08:09:24.289Z,1495.00
2023-03-17T08:10:23.478Z,1502.00
2023-03-17T08:11:23.554Z,1455.00
2023-03-17T08:12:23.494Z,1477.00
2023-03-17T08:13:23.456Z,1532.00
2023-03-17T08:14:23.423Z,1561.00
2023-03-17T08:15:23.491Z,1560.00
2023-03-17T08:16:23.610Z,1556.00
2023-03-17T08:17:23.677Z,1573.00
2023-03-17T08:18:23.739Z,1584.00
2023-03-17T08:19:23.919Z,1584.00
2023-03-17T08:20:23.877Z,1602.00
2023-03-17T08:21:23.862Z,1613.00
2023-03-17T08:22:23.941Z,1616.00
2023-03-17T08:23:24.257Z,1611.00
2023-03-17T08:24:24.046Z,1600.00
2023-03-17T08:25:24.063Z,1600.00
2023-03-17T08:26:24.135Z,1566.00
2023-03-17T08:27:24.229Z,1575.00
2023-03-17T08:28:24.227Z,1617.00
2023-03-17T08:29:24.337Z,1599.00
2023-03-17T08:30:24.361Z,1623.00
2023-03-17T08:31:24.480Z,1603.00
2023-03-17T08:32:24.451Z,1538.00
2023-03-17T08:33:24.503Z,1586.00
2023-03-17T08:34:24.522Z,1576.00
2023-03-17T08:35:24.575Z,1453.00
2023-03-17T08:36:24.630Z,1415.00
2023-03-17T08:37:24.666Z,1434.00
2023-03-17T08:38:24.741Z,1381.00
2023-03-17T08:39:24.808Z,1458.00
2023-03-17T08:40:24.857Z,1420.00
2023-03-17T08:41:24.945Z,1482.00
2023-03-17T08:42:24.971Z,1388.00
2023-03-17T08:43:25.044Z,1502.00
2023-03-17T08:44:25.044Z,1575.00
2023-03-17T08:45:25.102Z,1610.00
2023-03-17T08:46:25.163Z,1638.00
2023-03-17T08:47:25.177Z,1560.00
2023-03-17T08:48:25.296Z,1460.00
2023-03-17T08:49:25.231Z,1472.00
2023-03-17T08:50:25.335Z,1486.00
2023-03-17T08:51:25.272Z,1458.00
2023-03-17T08:52:25.338Z,1457.00
2023-03-17T08:53:25.416Z,1438.00
2023-03-17T08:54:25.471Z,1226.00
2023-03-17T08:55:25.478Z,1026.00
2023-03-17T08:56:25.484Z,1040.00
2023-03-17T08:57:25.497Z,944.00
2023-03-17T08:58:25.512Z,949.00
2023-03-17T08:59:25.571Z,874.00
2023-03-17T09:00:25.537Z,781.00
2023-03-17T09:01:25.651Z,651.00
2023-03-17T09:02:25.742Z,620.00
2023-03-17T09:03:25.710Z,638.00
2023-03-17T09:04:25.772Z,602.00
2023-03-17T09:05:25.818Z,621.00
2023-03-17T09:06:25.893Z,583.00
2023-03-17T09:07:25.936Z,563.00
2023-03-17T09:08:25.998Z,556.00
2023-03-17T09:09:26.070Z,587.00
2023-03-17T09:10:26.147Z,584.00
2023-03-17T09:11:26.178Z,554.00
2023-03-17T09:12:26.263Z,541.00
2023-03-17T09:13:26.286Z,548.00
2023-03-17T09:14:26.344Z,534.00
2023-03-17T09:15:26.354Z,508.00
2023-03-17T09:16:26.367Z,500.00
2023-03-17T09:17:26.425Z,537.00
2023-03-17T09:18:26.760Z,544.00
2023-03-17T09:19:26.540Z,525.00
2023-03-17T09:20:26.521Z,513.00
2023-03-17T09:21:26.572Z,516.00
2023-03-17T09:22:26.652Z,523.00
2023-03-17T09:23:26.735Z,562.00
2023-03-17T09:24:26.677Z,563.00
2023-03-17T09:25:26.690Z,556.00
2023-03-17T09:26:26.777Z,516.00
2023-03-17T09:27:26.843Z,529.00
2023-03-17T09:28:26.891Z,523.00
2023-03-17T09:29:26.903Z,507.00
2023-03-17T09:30:27.020Z,501.00
2023-03-17T09:31:27.064Z,528.00
2023-03-17T09:32:27.112Z,510.00
2023-03-17T09:33:27.323Z,506.00
2023-03-17T09:34:27.171Z,486.00
2023-03-17T09:35:27.253Z,523.00
2023-03-17T09:36:27.297Z,529.00
2023-03-17T09:37:27.329Z,541.00
2023-03-17T09:38:27.955Z,512.00
2023-03-17T09:39:27.526Z,506.00
2023-03-17T09:40:28.534Z,498.00
2023-03-17T09:41:27.638Z,502.00
2023-03-17T09:42:27.547Z,506.00
2023-03-17T09:43:27.620Z,509.00
2023-03-17T09:44:27.563Z,528.00
2023-03-17T09:45:27.562Z,528.00
2023-03-17T09:46:27.618Z,509.00
2023-03-17T09:47:27.568Z,503.00
2023-03-17T09:48:27.632Z,508.00
2023-03-17T09:49:27.656Z,518.00
2023-03-17T09:50:27.589Z,512.00
2023-03-17T09:51:27.589Z,561.00
2023-03-17T09:52:27.609Z,529.00
2023-03-17T09:53:27.636Z,517.00
2023-03-17T09:54:27.804Z,528.00
2023-03-17T09:55:27.731Z,522.00
2023-03-17T09:56:27.777Z,516.00
2023-03-17T09:57:27.865Z,514.00
2023-03-17T09:58:27.895Z,513.00
2023-03-17T09:59:27.970Z,525.00
2023-03-17T10:00:28.043Z,547.00
2023-03-17T10:01:28.107Z,563.00
2023-03-17T10:02:28.157Z,554.00
2023-03-17T10:03:28.202Z,551.00
2023-03-17T10:04:29.192Z,579.00
2023-03-17T10:05:28.456Z,589.00
2023-03-17T10:06:28.369Z,588.00
2023-03-17T10:07:28.439Z,601.00
2023-03-17T10:08:31.631Z,617.00
2023-03-17T10:09:28.568Z,614.00
2023-03-17T10:10:28.916Z,631.00
2023-03-17T10:11:28.460Z,632.00
2023-03-17T10:12:28.419Z,612.00
2023-03-17T10:13:28.439Z,611.00
2023-03-17T10:14:28.408Z,609.00
2023-03-17T10:15:28.410Z,578.00
2023-03-17T10:16:28.449Z,603.00
2023-03-17T10:17:28.403Z,593.00
2023-03-17T10:18:28.425Z,611.00
2023-03-17T10:19:28.415Z,628.00
2023-03-17T10:20:28.373Z,605.00
2023-03-17T10:21:28.366Z,610.00
2023-03-17T10:22:28.339Z,586.00
2023-03-17T10:23:28.350Z,574.00
2023-03-17T10:24:28.362Z,592.00
2023-03-17T10:25:28.354Z,604.00
2023-03-17T10:26:28.363Z,606.00
2023-03-17T10:27:28.326Z,608.00
2023-03-17T10:28:28.337Z,614.00
2023-03-17T10:29:28.298Z,628.00
2023-03-17T10:30:28.302Z,661.00
2023-03-17T10:31:28.440Z,668.00
2023-03-17T10:32:28.320Z,682.00
2023-03-17T10:33:28.295Z,686.00
2023-03-17T10:34:28.269Z,715.00
2023-03-17T10:35:28.316Z,682.00
2023-03-17T10:36:28.264Z,759.00
2023-03-17T10:37:28.236Z,663.00
2023-03-17T10:38:28.262Z,648.00
2023-03-17T10:39:29.300Z,688.00
2023-03-17T10:40:28.422Z,722.00
2023-03-17T10:41:28.213Z,738.00
2023-03-17T10:42:28.283Z,788.00
2023-03-17T10:43:28.288Z,790.00
2023-03-17T10:44:28.328Z,833.00
2023-03-17T10:45:28.268Z,842.00
2023-03-17T10:46:28.260Z,916.00
2023-03-17T10:47:28.306Z,920.00
2023-03-17T10:48:28.303Z,993.00
2023-03-17T10:49:28.836Z,1069.00
2023-03-17T10:50:28.489Z,1063.00
2023-03-17T10:51:28.501Z,1022.00
2023-03-17T10:52:28.505Z,1089.00
2023-03-17T10:53:28.673Z,1110.00
2023-03-17T10:54:28.816Z,1178.00
2023-03-17T10:55:28.590Z,1206.00
2023-03-17T10:56:28.647Z,1223.00
2023-03-17T10:57:28.693Z,1284.00
2023-03-17T10:58:28.756Z,1345.00
2023-03-17T10:59:28.822Z,1210.00
2023-03-17T11:00:29.120Z,1293.00
2023-03-17T11:01:28.918Z,1312.00
2023-03-17T11:02:28.990Z,1300.00
2023-03-17T11:03:29.121Z,1174.00
2023-03-17T11:04:29.111Z,1109.00
2023-03-17T11:05:29.179Z,976.00
2023-03-17T11:06:29.163Z,1170.00
2023-03-17T11:07:29.247Z,1136.00
2023-03-17T11:08:29.294Z,1240.00
2023-03-17T11:09:29.387Z,1380.00
2023-03-17T11:10:29.627Z,1445.00
2023-03-17T11:11:29.402Z,1494.00
2023-03-17T11:12:29.470Z,1518.00
2023-03-17T11:13:29.476Z,1528.00
2023-03-17T11:14:29.846Z,1599.00
2023-03-17T11:15:29.836Z,1632.00
2023-03-17T11:16:29.616Z,1677.00
2023-03-17T11:17:29.564Z,1732.00
2023-03-17T11:18:31.358Z,1784.00
2023-03-17T11:19:29.591Z,1798.00
2023-03-17T11:20:29.899Z,1806.00
2023-03-17T11:21:29.626Z,1797.00
2023-03-17T11:22:29.657Z,1783.00
2023-03-17T11:23:29.658Z,1789.00
2023-03-17T11:24:30.859Z,1777.00
2023-03-17T11:25:29.702Z,1786.00
2023-03-17T11:26:29.740Z,1792.00
2023-03-17T11:27:29.712Z,1780.00
2023-03-17T11:28:29.713Z,1778.00
2023-03-17T11:29:29.747Z,1769.00
2023-03-17T11:30:30.095Z,1768.00
2023-03-17T11:31:29.848Z,1771.00
2023-03-17T11:32:29.884Z,1770.00
2023-03-17T11:33:29.812Z,1763.00
2023-03-17T11:34:29.827Z,1756.00
2023-03-17T11:35:30.390Z,1751.00
2023-03-17T11:36:29.876Z,1740.00
2023-03-17T11:37:29.907Z,1743.00
2023-03-17T11:38:29.912Z,1759.00
2023-03-17T11:39:29.977Z,1753.00
2023-03-17T11:40:30.568Z,1736.00
2023-03-17T11:41:29.985Z,1745.00
2023-03-17T11:42:29.967Z,1731.00
2023-03-17T11:43:29.995Z,1728.00
2023-03-17T11:44:30.032Z,1721.00
2023-03-17T11:45:30.031Z,1722.00
2023-03-17T11:46:30.094Z,1713.00
2023-03-17T11:47:30.091Z,1725.00
2023-03-17T11:48:30.066Z,1712.00
2023-03-17T11:49:30.124Z,1707.00
2023-03-17T11:50:30.602Z,1722.00
2023-03-17T11:51:30.193Z,1697.00
2023-03-17T11:52:30.151Z,1705.00
2023-03-17T11:53:30.208Z,1699.00
2023-03-17T11:54:30.213Z,1702.00
2023-03-17T11:55:30.209Z,1690.00
2023-03-17T11:56:30.219Z,1670.00
2023-03-17T11:57:30.295Z,1651.00
2023-03-17T11:58:30.240Z,1638.00
2023-03-17T11:59:30.303Z,1631.00
2023-03-17T12:00:31.111Z,1624.00
2023-03-17T12:01:30.363Z,1621.00
2023-03-17T12:02:30.437Z,1606.00
2023-03-17T12:03:30.465Z,1594.00
2023-03-17T12:04:30.596Z,1558.00
2023-03-17T12:05:30.555Z,1542.00
2023-03-17T12:06:30.557Z,1534.00
2023-03-17T12:07:30.624Z,1498.00
2023-03-17T12:08:30.663Z,1489.00
2023-03-17T12:09:30.720Z,1481.00
2023-03-17T12:10:30.849Z,1480.00
2023-03-17T12:11:30.744Z,1484.00
2023-03-17T12:12:30.808Z,1479.00
2023-03-17T12:13:30.810Z,1486.00
2023-03-17T12:14:30.858Z,1482.00
2023-03-17T12:15:31.439Z,1494.00
2023-03-17T12:16:30.877Z,1499.00
2023-03-17T12:17:31.459Z,1485.00
2023-03-17T12:18:30.950Z,1489.00
2023-03-17T12:19:30.949Z,1496.00
2023-03-17T12:20:31.556Z,1496.00
2023-03-17T12:21:30.966Z,1493.00
2023-03-17T12:22:30.965Z,1489.00
2023-03-17T12:23:30.978Z,1499.00
2023-03-17T12:24:31.003Z,1514.00
2023-03-17T12:25:31.047Z,1510.00
2023-03-17T12:26:31.043Z,1519.00
2023-03-17T12:27:31.026Z,1544.00
2023-03-17T12:28:31.041Z,1527.00
2023-03-17T12:29:31.120Z,1549.00
2023-03-17T12:30:31.546Z,1534.00
2023-03-17T12:31:31.170Z,1547.00
2023-03-17T12:32:31.098Z,1555.00
2023-03-17T12:33:31.140Z,1563.00
2023-03-17T12:34:31.114Z,1561.00
2023-03-17T12:35:31.582Z,1564.00
2023-03-17T12:36:31.192Z,1580.00
2023-03-17T12:37:31.182Z,1568.00
2023-03-17T12:38:31.183Z,1582.00
2023-03-17T12:39:31.187Z,1588.00